KEUG

Mahlon Sweet Field Airport

Eugene, Oregon, USA
METAR KEUG 231954Z 14015KT 10SM BKN027 OVC100 13/08 A3000 RMK AO2 SLP160 T01280078
Observed Flight Rules
Oct-23 @ 19:54 UTC (37 minutes ago) Marginal Visual Flight Rules
Wind Visibility Clouds
140° at 15 knots 10 miles
  • Broken at 2,700' AGL
  • Overcast at 10,000' AGL
Temperatures Readings
Current 13°C / 55°F
Dewpoint 8°C / 46°F
Humidity 72%
Altimeter 30" Hg
Pressure 1016 hPa
Elevation 114
METAR KEUG 231954Z 14015KT 10SM BKN027 OVC100 13/08 A3000 RMK AO2 SLP160 T01280078
Observed Flight Rules
Oct-23 @ 19:54 UTC
(37 minutes ago)
MVFR
Wind Visibility
140° at 15 knots 10 miles
Clouds
  • Broken at 2,700' AGL
  • Overcast at 10,000' AGL
Temperature Dewpoint
13°C / 55°F 8°C / 46°F
Humidity Altimeter Pressure
72% 30" Hg 1016 hPa